Brewster Knott — WDG6998 — position and weather

sailwx.info

Track history (hours):
 
Tides and Currents Weather Stations Pressure Air Temp Water Temp Dewpoint Dewpoint Depression Visibility Wind Speed Wind Dir Waves Ship Positions

Brewster Knott

Owner: Kirby Inland Marine, LP, Houston, TX. More information available from US FCC via Universal Licensing System and Coast Guard Vessel Documentation Center.

Last reported at 2018-Jan-10 01:45 UTC. Time now 2018-Jan-21 20:28 UTC.
Position N 29°29' W 094°52'.
Warning: this ship's position is 11 days out of date.

Length 210 m; draft 3 m.

Type: . MMSI: 367562820.

Date/timePositionNaut miles runAvg speedWind from/ knotsBaromVisibWave heightAir tempDewpointWater temp
2018-Jan-10 01:45N 29°29' W 094°52'2 8.2
2018-Jan-10 01:30N 29°31' W 094°53'4 7.7
2018-Jan-10 01:00N 29°34' W 094°55'4 8.7
2018-Jan-10 00:30N 29°38' W 094°58'4 8.7
2018-Jan-10 00:00N 29°42' W 094°60'4 7.2
2018-Jan-09 23:30N 29°44' W 095°03'3 3.7
2018-Jan-09 22:38N 29°47' W 095°04'0 0.8
2018-Jan-09 22:30N 29°47' W 095°04'0 0.0
2018-Jan-09 19:54N 29°47' W 095°04'0 1.1
2018-Jan-09 19:30N 29°47' W 095°04'1 1.1
2018-Jan-09 19:00N 29°47' W 095°05'0 0.0
2018-Jan-09 18:30N 29°47' W 095°05'0 0.0
2018-Jan-09 17:58N 29°47' W 095°05'0 0.0
2018-Jan-09 17:29N 29°47' W 095°05'0 0.0
2018-Jan-09 17:00N 29°47' W 095°05'0 0.0
2018-Jan-09 16:27N 29°47' W 095°05'0 0.0
2018-Jan-09 16:00N 29°47' W 095°05'0 0.0
2018-Jan-09 15:29N 29°47' W 095°05'0 0.0
2018-Jan-09 15:00N 29°47' W 095°05'0 0.0
2018-Jan-09 14:30N 29°47' W 095°05'0 0.0
2018-Jan-09 13:02N 29°47' W 095°05'0 0.0
2018-Jan-09 12:44N 29°47' W 095°05'0 0.0
2018-Jan-09 12:27N 29°47' W 095°05'0 0.2
2018-Jan-09 11:51N 29°47' W 095°04'0 0.1
2018-Jan-09 11:25N 29°47' W 095°04'0 0.0
2018-Jan-09 10:59N 29°47' W 095°04'0 0.0
2018-Jan-09 10:28N 29°47' W 095°04'0 0.0
2018-Jan-09 10:00N 29°47' W 095°04'0 0.0
2018-Jan-09 09:26N 29°47' W 095°04'0 0.0
2018-Jan-09 09:01N 29°47' W 095°04'0 0.0
2018-Jan-09 08:29N 29°47' W 095°04'0 0.0
2018-Jan-09 07:59N 29°47' W 095°04'0 0.0
2018-Jan-09 07:30N 29°47' W 095°04'0 0.0
2018-Jan-09 07:00N 29°47' W 095°04'0 0.0
2018-Jan-09 06:27N 29°47' W 095°04'0 0.0
2018-Jan-09 05:49N 29°47' W 095°04'0 0.0
2018-Jan-09 05:28N 29°47' W 095°04'0 0.0
2018-Jan-09 04:55N 29°47' W 095°04'0 0.0
2018-Jan-09 04:30N 29°47' W 095°04'0 0.0
2018-Jan-09 03:57N 29°47' W 095°04'0 0.0
2018-Jan-09 03:29N 29°47' W 095°04'0 0.0
2018-Jan-09 03:00N 29°47' W 095°04'0 0.0
2018-Jan-08 16:42N 29°47' W 095°04'0 0.4
2018-Jan-08 16:21N 29°47' W 095°05'1 0.2
2018-Jan-08 10:11N 29°46' W 095°06'1 5.0
2018-Jan-08 09:57N 29°46' W 095°04'0 0.5
2018-Jan-08 09:30N 29°46' W 095°04'1 0.3
2018-Jan-08 05:27N 29°47' W 095°05'0 0.0
2018-Jan-08 04:07N 29°47' W 095°05'0 0.1
2018-Jan-08 04:00N 29°47' W 095°05'0 0.0
2018-Jan-08 03:28N 29°47' W 095°05'0 0.0
2018-Jan-08 01:39N 29°47' W 095°05'1 2.9
2018-Jan-08 01:14N 29°46' W 095°05'1 4.7
2018-Jan-08 00:58N 29°45' W 095°06'0 0.3
2018-Jan-08 00:31N 29°45' W 095°06'0 0.0
2018-Jan-08 00:00N 29°45' W 095°06'0 0.0
2018-Jan-07 22:30N 29°45' W 095°06'0 0.0
2018-Jan-07 21:53N 29°45' W 095°06'0 0.0
2018-Jan-07 21:30N 29°45' W 095°06'0 0.0
2018-Jan-07 21:00N 29°45' W 095°06'0 0.0
2018-Jan-07 20:30N 29°45' W 095°06'0 0.0
2018-Jan-07 19:41N 29°45' W 095°06'0 0.0
2018-Jan-07 19:30N 29°45' W 095°06'0 0.0
2018-Jan-07 18:53N 29°45' W 095°06'0 0.0
2018-Jan-07 17:36N 29°45' W 095°06'0 0.0
2018-Jan-07 17:22N 29°45' W 095°06'0 0.0
2018-Jan-07 16:59N 29°45' W 095°06'0 0.0
2018-Jan-07 15:40N 29°45' W 095°06'0 0.0
2018-Jan-07 15:27N 29°45' W 095°06'0 0.0
2018-Jan-07 14:54N 29°45' W 095°06'0 0.0
2018-Jan-07 09:08N 29°45' W 095°06'0 0.0
2018-Jan-07 09:00N 29°45' W 095°06'0 0.1
2018-Jan-07 07:43N 29°45' W 095°06'0 0.0
2018-Jan-07 07:29N 29°45' W 095°06'0 0.0
2018-Jan-07 05:40N 29°45' W 095°06'0 0.3
2018-Jan-07 05:27N 29°45' W 095°06'0 0.0
2018-Jan-07 04:59N 29°45' W 095°06'0 0.0
2018-Jan-07 04:31N 29°45' W 095°06'0 0.0
2018-Jan-07 04:00N 29°45' W 095°06'0 0.0
2018-Jan-07 03:30N 29°45' W 095°06'0 0.0
2018-Jan-07 02:55N 29°45' W 095°06'0 0.0
2018-Jan-07 01:47N 29°45' W 095°06'0 0.1
2018-Jan-07 01:28N 29°45' W 095°06'3 2.6
2018-Jan-07 00:24N 29°47' W 095°04'0 0.2
2018-Jan-06 23:58N 29°47' W 095°04'0 0.1
2018-Jan-06 23:29N 29°47' W 095°04'0 0.1
2018-Jan-06 22:51N 29°47' W 095°04'0 0.5
2018-Jan-06 22:26N 29°47' W 095°04'0 0.1
2018-Jan-06 21:40N 29°47' W 095°04'0 0.0
2018-Jan-06 20:30N 29°47' W 095°04'0 0.1
2018-Jan-06 19:49N 29°47' W 095°04'0 0.0
2018-Jan-06 19:18N 29°47' W 095°04'0 0.0
2018-Jan-06 18:53N 29°47' W 095°04'0 0.0
2018-Jan-06 18:30N 29°47' W 095°04'0 0.0
2018-Jan-06 17:25N 29°47' W 095°04'0 0.0
2018-Jan-06 16:47N 29°47' W 095°04'0 0.0
2018-Jan-06 16:23N 29°47' W 095°04'0 0.0
2018-Jan-06 16:00N 29°47' W 095°04'0 0.0
2018-Jan-06 15:24N 29°47' W 095°04'0 0.0
2018-Jan-06 14:57N 29°47' W 095°04'0 0.0
2018-Jan-06 14:16N 29°47' W 095°04'0 0.0
2018-Jan-06 13:49N 29°47' W 095°04'0 0.0
2018-Jan-06 13:18N 29°47' W 095°04'0 0.0
2018-Jan-06 12:58N 29°47' W 095°04'0 0.0
2018-Jan-06 12:11N 29°47' W 095°04'0 0.0
2018-Jan-06 11:58N 29°47' W 095°04'0 0.0
2018-Jan-06 11:30N 29°47' W 095°04'0 0.0
2018-Jan-06 10:59N 29°47' W 095°04'0 0.0
2018-Jan-06 10:30N 29°47' W 095°04'0 0.0
2018-Jan-06 10:00N 29°47' W 095°04'0 0.0
2018-Jan-06 08:21N 29°47' W 095°04'0 0.0
2018-Jan-06 07:56N 29°47' W 095°04'0 0.6
2018-Jan-06 07:24N 29°47' W 095°04'0 0.5
2018-Jan-06 07:00N 29°47' W 095°04'0 0.7
2018-Jan-06 06:30N 29°47' W 095°04'0 0.3
2018-Jan-06 05:04N 29°47' W 095°04'0 0.8
2018-Jan-06 04:36N 29°47' W 095°04'0 0.9
2018-Jan-06 04:30N 29°47' W 095°04'0 0.0
2018-Jan-06 03:48N 29°47' W 095°04'0 0.0
2018-Jan-06 03:30N 29°47' W 095°04'0 0.3
2018-Jan-06 02:34N 29°47' W 095°04'0 1.3
2018-Jan-06 02:29N 29°47' W 095°04'0 0.3
2018-Jan-06 01:59N 29°47' W 095°04'0 0.1
2018-Jan-06 01:27N 29°47' W 095°04'0 0.0
2018-Jan-06 01:00N 29°47' W 095°04'0 0.0
2018-Jan-06 00:29N 29°47' W 095°04'0 0.0
2018-Jan-05 23:58N 29°47' W 095°04'0 0.0
2018-Jan-05 23:29N 29°47' W 095°04'1 0.9
2018-Jan-05 22:01N 29°46' W 095°05'1 0.5
2018-Jan-05 19:34N 29°47' W 095°04'0 1.2
2018-Jan-05 19:29N 29°47' W 095°04'0 0.1
2018-Jan-05 15:31N 29°47' W 095°04'1 2.1
2018-Jan-05 15:15N 29°47' W 095°05'0 0.1
2018-Jan-05 12:34N 29°47' W 095°04'0 0.3
2018-Jan-05 12:29N 29°47' W 095°04'0 0.0
2018-Jan-05 12:00N 29°47' W 095°04'0 0.0
2018-Jan-05 11:30N 29°47' W 095°04'0 0.0
2018-Jan-05 11:00N 29°47' W 095°04'0 0.0
2018-Jan-05 10:30N 29°47' W 095°04'0 0.0
2018-Jan-05 10:00N 29°47' W 095°04'0 0.0
2018-Jan-05 09:30N 29°47' W 095°04'0 0.0
2018-Jan-05 09:00N 29°47' W 095°04'0 0.0
2018-Jan-05 08:31N 29°47' W 095°04'0 0.0
2018-Jan-05 08:01N 29°47' W 095°04'0 0.0
2018-Jan-05 07:31N 29°47' W 095°04'0 0.5
2018-Jan-05 07:00N 29°47' W 095°04'0 0.5
2018-Jan-05 06:30N 29°47' W 095°04'0 0.0
2018-Jan-05 06:00N 29°47' W 095°04'2 3.4
2018-Jan-05 05:27N 29°45' W 095°06'0 0.0
2018-Jan-05 05:00N 29°45' W 095°06'0 0.0
2018-Jan-05 04:30N 29°45' W 095°06'0 0.0
2018-Jan-05 03:59N 29°45' W 095°06'0 0.0
2018-Jan-05 03:29N 29°45' W 095°06'2 3.3
2018-Jan-05 02:56N 29°47' W 095°04'0 0.1
2018-Jan-05 01:56N 29°47' W 095°04'2 0.2
2018-Jan-04 17:17N 29°46' W 095°06'0 0.0
2018-Jan-04 14:27N 29°46' W 095°06'2 2.9
2018-Jan-04 13:56N 29°47' W 095°04'0 0.2
2018-Jan-04 13:29N 29°47' W 095°04'0 0.0
2018-Jan-04 12:53N 29°47' W 095°04'0 0.0
2018-Jan-04 12:17N 29°47' W 095°04'0 0.0
2018-Jan-04 11:59N 29°47' W 095°04'1 1.0
2018-Jan-04 11:12N 29°46' W 095°05'1 6.0
2018-Jan-04 11:00N 29°45' W 095°06'0 0.1
2018-Jan-04 09:30N 29°45' W 095°06'0 0.6
2018-Jan-04 09:00N 29°45' W 095°06'0 0.7
2018-Jan-04 08:20N 29°46' W 095°06'0 0.0
2018-Jan-04 07:44N 29°46' W 095°06'0 0.0
2018-Jan-04 06:35N 29°46' W 095°06'0 0.0
2018-Jan-04 06:26N 29°46' W 095°06'0 0.0
2018-Jan-04 05:38N 29°46' W 095°06'0 0.0
2018-Jan-04 05:20N 29°46' W 095°06'1 0.3
2018-Jan-04 00:38N 29°47' W 095°04'2 1.1
2018-Jan-03 23:03N 29°45' W 095°04'1 7.0
2018-Jan-03 22:55N 29°44' W 095°04'2 5.1
2018-Jan-03 22:26N 29°43' W 095°01'3 6.0
2018-Jan-03 22:00N 29°41' W 094°59'3 6.6
2018-Jan-03 21:31N 29°38' W 094°58'3 6.5
2018-Jan-03 21:00N 29°35' W 094°56'4 7.0
2018-Jan-03 20:30N 29°32' W 094°54'70 2.8
2018-Jan-02 19:19N 30°04' W 093°42'2 5.3
2018-Jan-02 19:00N 30°04' W 093°40'2 5.0
2018-Jan-02 18:30N 30°04' W 093°37'2 4.1
2018-Jan-02 18:00N 30°04' W 093°35'2 4.3
2018-Jan-02 17:30N 30°04' W 093°32'2 4.3
2018-Jan-02 17:00N 30°04' W 093°30'2 4.4
2018-Jan-02 16:30N 30°04' W 093°27'2 4.2
2018-Jan-02 16:00N 30°04' W 093°25'2 4.0
2018-Jan-02 15:30N 30°04' W 093°22'1 2.6
2018-Jan-02 15:00N 30°04' W 093°21'1 2.9
2018-Jan-02 14:30N 30°05' W 093°20'2 3.4
2018-Jan-02 14:00N 30°06' W 093°18'1 1.4
2018-Jan-02 13:30N 30°05' W 093°17'1 2.0
2018-Jan-02 13:00N 30°05' W 093°17'2 3.3
2018-Jan-02 12:30N 30°03' W 093°16'2 3.3
2018-Jan-02 12:01N 30°02' W 093°15'2 3.5
2018-Jan-02 11:30N 30°00' W 093°14'2 4.2
2018-Jan-02 11:01N 29°59' W 093°12'2 4.5
2018-Jan-02 10:30N 29°57' W 093°10'2 3.9
2018-Jan-02 10:00N 29°56' W 093°08'2 4.3
2018-Jan-02 09:31N 29°56' W 093°06'38 4.0
2018-Jan-02 00:04N 29°52' W 092°23'2 3.5
2018-Jan-01 23:38N 29°51' W 092°22'0 3.4
2018-Jan-01 23:30N 29°51' W 092°21'2 3.7
2018-Jan-01 23:00N 29°50' W 092°19'2 3.5
2018-Jan-01 22:30N 29°49' W 092°18'2 3.9
2018-Jan-01 22:00N 29°48' W 092°16'2 4.6
2018-Jan-01 21:30N 29°47' W 092°13'1 1.7
2018-Jan-01 21:01N 29°47' W 092°12'1 1.1
2018-Jan-01 20:30N 29°47' W 092°12'1 1.9
2018-Jan-01 20:00N 29°47' W 092°11'1 2.4
2018-Jan-01 19:30N 29°47' W 092°09'1 2.7
2018-Jan-01 19:00N 29°47' W 092°08'1 2.8
2018-Jan-01 18:30N 29°48' W 092°06'2 3.2
2018-Jan-01 18:00N 29°48' W 092°05'2 3.2
2018-Jan-01 17:30N 29°49' W 092°03'59 3.8
2018-Jan-01 01:45N 29°34' W 090°57'2 5.5
2018-Jan-01 01:27N 29°33' W 090°55'5 4.9
2018-Jan-01 00:31N 29°32' W 090°50'10 2.9
2017-Dec-31 21:00N 29°36' W 090°39'2 4.3
2017-Dec-31 20:30N 29°35' W 090°37'2 3.9
2017-Dec-31 20:00N 29°34' W 090°35'2 4.4
2017-Dec-31 19:30N 29°34' W 090°32'2 4.6
2017-Dec-31 19:00N 29°34' W 090°30'2 4.5
2017-Dec-31 18:30N 29°33' W 090°27'2 4.4
2017-Dec-31 17:58N 29°33' W 090°24'  
Track history (hours):
 
Tides and Currents Weather Stations Pressure Air Temp Water Temp Dewpoint Dewpoint Depression Visibility Wind Speed Wind Dir Waves Ship Positions

Brewster Knott

Owner: Kirby Inland Marine, LP, Houston, TX. More information available from US FCC via Universal Licensing System and Coast Guard Vessel Documentation Center.

Last reported at 2018-Jan-10 01:45 UTC. Time now 2018-Jan-21 20:28 UTC.
Position N 29°29' W 094°52'.
Warning: this ship's position is 11 days out of date.

Length 210 m; draft 3 m.

Type: . MMSI: 367562820.

Date/timePositionNaut miles runAvg speedWind from/ knotsBaromVisibWave heightAir tempDewpointWater temp
2018-Jan-10 01:45N 29°29' W 094°52'2 8.2
2018-Jan-10 01:30N 29°31' W 094°53'4 7.7
2018-Jan-10 01:00N 29°34' W 094°55'4 8.7
2018-Jan-10 00:30N 29°38' W 094°58'4 8.7
2018-Jan-10 00:00N 29°42' W 094°60'4 7.2
2018-Jan-09 23:30N 29°44' W 095°03'3 3.7
2018-Jan-09 22:38N 29°47' W 095°04'0 0.8
2018-Jan-09 22:30N 29°47' W 095°04'0 0.0
2018-Jan-09 19:54N 29°47' W 095°04'0 1.1
2018-Jan-09 19:30N 29°47' W 095°04'1 1.1
2018-Jan-09 19:00N 29°47' W 095°05'0 0.0
2018-Jan-09 18:30N 29°47' W 095°05'0 0.0
2018-Jan-09 17:58N 29°47' W 095°05'0 0.0
2018-Jan-09 17:29N 29°47' W 095°05'0 0.0
2018-Jan-09 17:00N 29°47' W 095°05'0 0.0
2018-Jan-09 16:27N 29°47' W 095°05'0 0.0
2018-Jan-09 16:00N 29°47' W 095°05'0 0.0
2018-Jan-09 15:29N 29°47' W 095°05'0 0.0
2018-Jan-09 15:00N 29°47' W 095°05'0 0.0
2018-Jan-09 14:30N 29°47' W 095°05'0 0.0
2018-Jan-09 13:02N 29°47' W 095°05'0 0.0
2018-Jan-09 12:44N 29°47' W 095°05'0 0.0
2018-Jan-09 12:27N 29°47' W 095°05'0 0.2
2018-Jan-09 11:51N 29°47' W 095°04'0 0.1
2018-Jan-09 11:25N 29°47' W 095°04'0 0.0
2018-Jan-09 10:59N 29°47' W 095°04'0 0.0
2018-Jan-09 10:28N 29°47' W 095°04'0 0.0
2018-Jan-09 10:00N 29°47' W 095°04'0 0.0
2018-Jan-09 09:26N 29°47' W 095°04'0 0.0
2018-Jan-09 09:01N 29°47' W 095°04'0 0.0
2018-Jan-09 08:29N 29°47' W 095°04'0 0.0
2018-Jan-09 07:59N 29°47' W 095°04'0 0.0
2018-Jan-09 07:30N 29°47' W 095°04'0 0.0
2018-Jan-09 07:00N 29°47' W 095°04'0 0.0
2018-Jan-09 06:27N 29°47' W 095°04'0 0.0
2018-Jan-09 05:49N 29°47' W 095°04'0 0.0
2018-Jan-09 05:28N 29°47' W 095°04'0 0.0
2018-Jan-09 04:55N 29°47' W 095°04'0 0.0
2018-Jan-09 04:30N 29°47' W 095°04'0 0.0
2018-Jan-09 03:57N 29°47' W 095°04'0 0.0
2018-Jan-09 03:29N 29°47' W 095°04'0 0.0
2018-Jan-09 03:00N 29°47' W 095°04'0 0.0
2018-Jan-08 16:42N 29°47' W 095°04'0 0.4
2018-Jan-08 16:21N 29°47' W 095°05'1 0.2
2018-Jan-08 10:11N 29°46' W 095°06'1 5.0
2018-Jan-08 09:57N 29°46' W 095°04'0 0.5
2018-Jan-08 09:30N 29°46' W 095°04'1 0.3
2018-Jan-08 05:27N 29°47' W 095°05'0 0.0
2018-Jan-08 04:07N 29°47' W 095°05'0 0.1
2018-Jan-08 04:00N 29°47' W 095°05'0 0.0
2018-Jan-08 03:28N 29°47' W 095°05'0 0.0
2018-Jan-08 01:39N 29°47' W 095°05'1 2.9
2018-Jan-08 01:14N 29°46' W 095°05'1 4.7
2018-Jan-08 00:58N 29°45' W 095°06'0 0.3
2018-Jan-08 00:31N 29°45' W 095°06'0 0.0
2018-Jan-08 00:00N 29°45' W 095°06'0 0.0
2018-Jan-07 22:30N 29°45' W 095°06'0 0.0
2018-Jan-07 21:53N 29°45' W 095°06'0 0.0
2018-Jan-07 21:30N 29°45' W 095°06'0 0.0
2018-Jan-07 21:00N 29°45' W 095°06'0 0.0
2018-Jan-07 20:30N 29°45' W 095°06'0 0.0
2018-Jan-07 19:41N 29°45' W 095°06'0 0.0
2018-Jan-07 19:30N 29°45' W 095°06'0 0.0
2018-Jan-07 18:53N 29°45' W 095°06'0 0.0
2018-Jan-07 17:36N 29°45' W 095°06'0 0.0
2018-Jan-07 17:22N 29°45' W 095°06'0 0.0
2018-Jan-07 16:59N 29°45' W 095°06'0 0.0
2018-Jan-07 15:40N 29°45' W 095°06'0 0.0
2018-Jan-07 15:27N 29°45' W 095°06'0 0.0
2018-Jan-07 14:54N 29°45' W 095°06'0 0.0
2018-Jan-07 09:08N 29°45' W 095°06'0 0.0
2018-Jan-07 09:00N 29°45' W 095°06'0 0.1
2018-Jan-07 07:43N 29°45' W 095°06'0 0.0
2018-Jan-07 07:29N 29°45' W 095°06'0 0.0
2018-Jan-07 05:40N 29°45' W 095°06'0 0.3
2018-Jan-07 05:27N 29°45' W 095°06'0 0.0
2018-Jan-07 04:59N 29°45' W 095°06'0 0.0
2018-Jan-07 04:31N 29°45' W 095°06'0 0.0
2018-Jan-07 04:00N 29°45' W 095°06'0 0.0
2018-Jan-07 03:30N 29°45' W 095°06'0 0.0
2018-Jan-07 02:55N 29°45' W 095°06'0 0.0
2018-Jan-07 01:47N 29°45' W 095°06'0 0.1
2018-Jan-07 01:28N 29°45' W 095°06'3 2.6
2018-Jan-07 00:24N 29°47' W 095°04'0 0.2
2018-Jan-06 23:58N 29°47' W 095°04'0 0.1
2018-Jan-06 23:29N 29°47' W 095°04'0 0.1
2018-Jan-06 22:51N 29°47' W 095°04'0 0.5
2018-Jan-06 22:26N 29°47' W 095°04'0 0.1
2018-Jan-06 21:40N 29°47' W 095°04'0 0.0
2018-Jan-06 20:30N 29°47' W 095°04'0 0.1
2018-Jan-06 19:49N 29°47' W 095°04'0 0.0
2018-Jan-06 19:18N 29°47' W 095°04'0 0.0
2018-Jan-06 18:53N 29°47' W 095°04'0 0.0
2018-Jan-06 18:30N 29°47' W 095°04'0 0.0
2018-Jan-06 17:25N 29°47' W 095°04'0 0.0
2018-Jan-06 16:47N 29°47' W 095°04'0 0.0
2018-Jan-06 16:23N 29°47' W 095°04'0 0.0
2018-Jan-06 16:00N 29°47' W 095°04'0 0.0
2018-Jan-06 15:24N 29°47' W 095°04'0 0.0
2018-Jan-06 14:57N 29°47' W 095°04'0 0.0
2018-Jan-06 14:16N 29°47' W 095°04'0 0.0
2018-Jan-06 13:49N 29°47' W 095°04'0 0.0
2018-Jan-06 13:18N 29°47' W 095°04'0 0.0
2018-Jan-06 12:58N 29°47' W 095°04'0 0.0
2018-Jan-06 12:11N 29°47' W 095°04'0 0.0
2018-Jan-06 11:58N 29°47' W 095°04'0 0.0
2018-Jan-06 11:30N 29°47' W 095°04'0 0.0
2018-Jan-06 10:59N 29°47' W 095°04'0 0.0
2018-Jan-06 10:30N 29°47' W 095°04'0 0.0
2018-Jan-06 10:00N 29°47' W 095°04'0 0.0
2018-Jan-06 08:21N 29°47' W 095°04'0 0.0
2018-Jan-06 07:56N 29°47' W 095°04'0 0.6
2018-Jan-06 07:24N 29°47' W 095°04'0 0.5
2018-Jan-06 07:00N 29°47' W 095°04'0 0.7
2018-Jan-06 06:30N 29°47' W 095°04'0 0.3
2018-Jan-06 05:04N 29°47' W 095°04'0 0.8
2018-Jan-06 04:36N 29°47' W 095°04'0 0.9
2018-Jan-06 04:30N 29°47' W 095°04'0 0.0
2018-Jan-06 03:48N 29°47' W 095°04'0 0.0
2018-Jan-06 03:30N 29°47' W 095°04'0 0.3
2018-Jan-06 02:34N 29°47' W 095°04'0 1.3
2018-Jan-06 02:29N 29°47' W 095°04'0 0.3
2018-Jan-06 01:59N 29°47' W 095°04'0 0.1
2018-Jan-06 01:27N 29°47' W 095°04'0 0.0
2018-Jan-06 01:00N 29°47' W 095°04'0 0.0
2018-Jan-06 00:29N 29°47' W 095°04'0 0.0
2018-Jan-05 23:58N 29°47' W 095°04'0 0.0
2018-Jan-05 23:29N 29°47' W 095°04'1 0.9
2018-Jan-05 22:01N 29°46' W 095°05'1 0.5
2018-Jan-05 19:34N 29°47' W 095°04'0 1.2
2018-Jan-05 19:29N 29°47' W 095°04'0 0.1
2018-Jan-05 15:31N 29°47' W 095°04'1 2.1
2018-Jan-05 15:15N 29°47' W 095°05'0 0.1
2018-Jan-05 12:34N 29°47' W 095°04'0 0.3
2018-Jan-05 12:29N 29°47' W 095°04'0 0.0
2018-Jan-05 12:00N 29°47' W 095°04'0 0.0
2018-Jan-05 11:30N 29°47' W 095°04'0 0.0
2018-Jan-05 11:00N 29°47' W 095°04'0 0.0
2018-Jan-05 10:30N 29°47' W 095°04'0 0.0
2018-Jan-05 10:00N 29°47' W 095°04'0 0.0
2018-Jan-05 09:30N 29°47' W 095°04'0 0.0
2018-Jan-05 09:00N 29°47' W 095°04'0 0.0
2018-Jan-05 08:31N 29°47' W 095°04'0 0.0
2018-Jan-05 08:01N 29°47' W 095°04'0 0.0
2018-Jan-05 07:31N 29°47' W 095°04'0 0.5
2018-Jan-05 07:00N 29°47' W 095°04'0 0.5
2018-Jan-05 06:30N 29°47' W 095°04'0 0.0
2018-Jan-05 06:00N 29°47' W 095°04'2 3.4
2018-Jan-05 05:27N 29°45' W 095°06'0 0.0
2018-Jan-05 05:00N 29°45' W 095°06'0 0.0
2018-Jan-05 04:30N 29°45' W 095°06'0 0.0
2018-Jan-05 03:59N 29°45' W 095°06'0 0.0
2018-Jan-05 03:29N 29°45' W 095°06'2 3.3
2018-Jan-05 02:56N 29°47' W 095°04'0 0.1
2018-Jan-05 01:56N 29°47' W 095°04'2 0.2
2018-Jan-04 17:17N 29°46' W 095°06'0 0.0
2018-Jan-04 14:27N 29°46' W 095°06'2 2.9
2018-Jan-04 13:56N 29°47' W 095°04'0 0.2
2018-Jan-04 13:29N 29°47' W 095°04'0 0.0
2018-Jan-04 12:53N 29°47' W 095°04'0 0.0
2018-Jan-04 12:17N 29°47' W 095°04'0 0.0
2018-Jan-04 11:59N 29°47' W 095°04'1 1.0
2018-Jan-04 11:12N 29°46' W 095°05'1 6.0
2018-Jan-04 11:00N 29°45' W 095°06'0 0.1
2018-Jan-04 09:30N 29°45' W 095°06'0 0.6
2018-Jan-04 09:00N 29°45' W 095°06'0 0.7
2018-Jan-04 08:20N 29°46' W 095°06'0 0.0
2018-Jan-04 07:44N 29°46' W 095°06'0 0.0
2018-Jan-04 06:35N 29°46' W 095°06'0 0.0
2018-Jan-04 06:26N 29°46' W 095°06'0 0.0
2018-Jan-04 05:38N 29°46' W 095°06'0 0.0
2018-Jan-04 05:20N 29°46' W 095°06'1 0.3
2018-Jan-04 00:38N 29°47' W 095°04'2 1.1
2018-Jan-03 23:03N 29°45' W 095°04'1 7.0
2018-Jan-03 22:55N 29°44' W 095°04'2 5.1
2018-Jan-03 22:26N 29°43' W 095°01'3 6.0
2018-Jan-03 22:00N 29°41' W 094°59'3 6.6
2018-Jan-03 21:31N 29°38' W 094°58'3 6.5
2018-Jan-03 21:00N 29°35' W 094°56'4 7.0
2018-Jan-03 20:30N 29°32' W 094°54'70 2.8
2018-Jan-02 19:19N 30°04' W 093°42'2 5.3
2018-Jan-02 19:00N 30°04' W 093°40'2 5.0
2018-Jan-02 18:30N 30°04' W 093°37'2 4.1
2018-Jan-02 18:00N 30°04' W 093°35'2 4.3
2018-Jan-02 17:30N 30°04' W 093°32'2 4.3
2018-Jan-02 17:00N 30°04' W 093°30'2 4.4
2018-Jan-02 16:30N 30°04' W 093°27'2 4.2
2018-Jan-02 16:00N 30°04' W 093°25'2 4.0
2018-Jan-02 15:30N 30°04' W 093°22'1 2.6
2018-Jan-02 15:00N 30°04' W 093°21'1 2.9
2018-Jan-02 14:30N 30°05' W 093°20'2 3.4
2018-Jan-02 14:00N 30°06' W 093°18'1 1.4
2018-Jan-02 13:30N 30°05' W 093°17'1 2.0
2018-Jan-02 13:00N 30°05' W 093°17'2 3.3
2018-Jan-02 12:30N 30°03' W 093°16'2 3.3
2018-Jan-02 12:01N 30°02' W 093°15'2 3.5
2018-Jan-02 11:30N 30°00' W 093°14'2 4.2
2018-Jan-02 11:01N 29°59' W 093°12'2 4.5
2018-Jan-02 10:30N 29°57' W 093°10'2 3.9
2018-Jan-02 10:00N 29°56' W 093°08'2 4.3
2018-Jan-02 09:31N 29°56' W 093°06'38 4.0
2018-Jan-02 00:04N 29°52' W 092°23'2 3.5
2018-Jan-01 23:38N 29°51' W 092°22'0 3.4
2018-Jan-01 23:30N 29°51' W 092°21'2 3.7
2018-Jan-01 23:00N 29°50' W 092°19'2 3.5
2018-Jan-01 22:30N 29°49' W 092°18'2 3.9
2018-Jan-01 22:00N 29°48' W 092°16'2 4.6
2018-Jan-01 21:30N 29°47' W 092°13'1 1.7
2018-Jan-01 21:01N 29°47' W 092°12'1 1.1
2018-Jan-01 20:30N 29°47' W 092°12'1 1.9
2018-Jan-01 20:00N 29°47' W 092°11'1 2.4
2018-Jan-01 19:30N 29°47' W 092°09'1 2.7
2018-Jan-01 19:00N 29°47' W 092°08'1 2.8
2018-Jan-01 18:30N 29°48' W 092°06'2 3.2
2018-Jan-01 18:00N 29°48' W 092°05'2 3.2
2018-Jan-01 17:30N 29°49' W 092°03'59 3.8
2018-Jan-01 01:45N 29°34' W 090°57'2 5.5
2018-Jan-01 01:27N 29°33' W 090°55'5 4.9
2018-Jan-01 00:31N 29°32' W 090°50'10 2.9
2017-Dec-31 21:00N 29°36' W 090°39'2 4.3
2017-Dec-31 20:30N 29°35' W 090°37'2 3.9
2017-Dec-31 20:00N 29°34' W 090°35'2 4.4
2017-Dec-31 19:30N 29°34' W 090°32'2 4.6
2017-Dec-31 19:00N 29°34' W 090°30'2 4.5
2017-Dec-31 18:30N 29°33' W 090°27'2 4.4
2017-Dec-31 17:58N 29°33' W 090°24'  

Dump ship's entire track history